createdAt,value
2016-11-28T00:00:56.705Z,23.83
2016-11-28T00:02:10.315Z,23.87
2016-11-28T00:03:23.392Z,23.85
2016-11-28T00:04:37.270Z,23.84
2016-11-28T00:05:50.350Z,23.87
2016-11-28T00:07:02.920Z,23.73
2016-11-28T00:08:16.012Z,23.84
2016-11-28T00:09:31.025Z,23.72
2016-11-28T00:10:44.756Z,23.68
2016-11-28T00:11:58.358Z,23.84
2016-11-28T00:13:11.376Z,23.65
2016-11-28T00:14:24.454Z,23.73
2016-11-28T00:15:38.104Z,23.83
2016-11-28T00:17:22.541Z,23.69
2016-11-28T00:18:35.651Z,23.76
2016-11-28T00:19:49.257Z,23.76
2016-11-28T00:21:01.813Z,23.73
2016-11-28T00:22:15.521Z,23.83
2016-11-28T00:23:29.166Z,23.72
2016-11-28T00:24:42.845Z,23.76
2016-11-28T00:25:56.376Z,23.69
2016-11-28T00:27:09.947Z,23.73
2016-11-28T00:28:23.059Z,23.78
2016-11-28T00:29:36.130Z,23.7
2016-11-28T00:30:49.756Z,23.9
2016-11-28T00:32:03.394Z,23.87
2016-11-28T00:33:16.465Z,23.79
2016-11-28T00:34:30.050Z,23.76
2016-11-28T00:35:43.431Z,23.79
2016-11-28T00:36:56.193Z,23.85
2016-11-28T00:38:09.858Z,23.84
2016-11-28T00:39:23.504Z,23.78
2016-11-28T00:40:37.352Z,23.78
2016-11-28T00:41:50.402Z,23.85
2016-11-28T00:43:04.286Z,23.79
2016-11-28T00:44:17.316Z,23.93
2016-11-28T00:45:30.647Z,23.9
2016-11-28T00:46:44.597Z,23.91
2016-11-28T00:47:58.214Z,23.98
2016-11-28T00:49:42.900Z,24.05
2016-11-28T00:50:55.701Z,24.06
2016-11-28T00:52:08.509Z,24.06
2016-11-28T00:53:21.290Z,23.97
2016-11-28T00:54:34.355Z,23.93
2016-11-28T00:55:48.060Z,23.8
2016-11-28T00:57:01.219Z,23.79
2016-11-28T00:58:14.275Z,23.76
2016-11-28T00:59:27.990Z,23.87
2016-11-28T01:00:41.283Z,23.8
2016-11-28T01:01:54.906Z,23.84
2016-11-28T01:03:08.569Z,23.76
2016-11-28T01:04:21.409Z,23.79
2016-11-28T01:06:06.183Z,23.73
2016-11-28T01:07:19.466Z,23.69
2016-11-28T01:08:32.973Z,23.69
2016-11-28T01:09:46.082Z,23.76
2016-11-28T01:12:44.110Z,23.6
2016-11-28T01:13:57.694Z,23.55
2016-11-28T01:15:10.800Z,23.57
2016-11-28T01:16:24.393Z,23.57
2016-11-28T01:17:37.477Z,23.53
2016-11-28T01:18:50.005Z,23.55
2016-11-28T01:20:03.040Z,23.51
2016-11-28T01:21:16.044Z,23.4
2016-11-28T01:22:29.661Z,23.42
2016-11-28T01:23:43.224Z,23.42
2016-11-28T01:24:56.823Z,23.51
2016-11-28T01:26:10.479Z,23.54
2016-11-28T01:27:24.074Z,23.53
2016-11-28T01:28:37.689Z,23.57
2016-11-28T01:29:50.807Z,23.54
2016-11-28T01:31:04.401Z,23.55
2016-11-28T01:32:17.988Z,23.47
2016-11-28T01:33:31.623Z,23.42
2016-11-28T01:34:45.257Z,23.43
2016-11-28T01:35:58.338Z,23.53
2016-11-28T01:37:11.984Z,23.54
2016-11-28T01:38:25.594Z,23.57
2016-11-28T01:39:38.665Z,23.63
2016-11-28T01:40:51.791Z,23.7
2016-11-28T01:42:05.403Z,23.8
2016-11-28T01:43:19.024Z,23.72
2016-11-28T01:45:03.674Z,23.83
2016-11-28T01:46:16.833Z,23.83
2016-11-28T01:47:30.423Z,23.78
2016-11-28T01:48:44.016Z,23.69
2016-11-28T01:49:57.629Z,23.8
2016-11-28T01:51:11.636Z,23.83
2016-11-28T01:52:24.731Z,23.83
2016-11-28T01:53:37.793Z,23.84
2016-11-28T01:54:51.410Z,23.72
2016-11-28T01:56:04.431Z,23.8
2016-11-28T01:57:16.940Z,23.85
2016-11-28T01:58:29.475Z,23.79
2016-11-28T01:59:42.608Z,23.79
2016-11-28T02:00:56.193Z,23.83
2016-11-28T02:02:08.752Z,23.69
2016-11-28T02:03:22.366Z,23.7
2016-11-28T02:04:35.454Z,23.69
2016-11-28T02:05:49.065Z,23.69
2016-11-28T02:07:02.605Z,23.69
2016-11-28T02:08:16.206Z,23.69
2016-11-28T02:09:29.862Z,23.79
2016-11-28T02:10:42.913Z,23.72
2016-11-28T02:11:56.456Z,23.65
2016-11-28T02:13:10.359Z,23.68
2016-11-28T02:14:23.936Z,23.73
2016-11-28T02:15:47.818Z,23.7
2016-11-28T02:17:00.595Z,23.73
2016-11-28T02:18:13.707Z,23.68
2016-11-28T02:19:27.338Z,23.72
2016-11-28T02:21:12.103Z,23.65
2016-11-28T02:22:25.765Z,23.69
2016-11-28T02:23:38.909Z,23.66
2016-11-28T02:24:51.487Z,23.69
2016-11-28T02:26:05.105Z,23.65
2016-11-28T02:27:18.725Z,23.68
2016-11-28T02:28:32.331Z,23.65
2016-11-28T02:29:45.944Z,23.66
2016-11-28T02:30:59.179Z,23.57
2016-11-28T02:32:12.512Z,23.54
2016-11-28T02:33:56.665Z,23.54
2016-11-28T02:35:10.111Z,23.58
2016-11-28T02:36:23.734Z,23.58
2016-11-28T02:37:37.484Z,23.55
2016-11-28T02:38:50.548Z,23.5
2016-11-28T02:40:04.440Z,23.6
2016-11-28T02:41:18.141Z,23.61
2016-11-28T02:42:31.770Z,23.68
2016-11-28T02:43:45.075Z,23.7
2016-11-28T02:44:58.746Z,23.76
2016-11-28T02:46:12.399Z,23.8
2016-11-28T02:47:25.499Z,23.75
2016-11-28T02:48:38.792Z,23.83
2016-11-28T02:49:51.884Z,23.83
2016-11-28T02:51:05.474Z,23.78
2016-11-28T02:52:19.082Z,23.85
2016-11-28T02:53:32.641Z,23.75
2016-11-28T02:54:46.247Z,23.87
2016-11-28T02:55:59.293Z,23.76
2016-11-28T02:57:12.921Z,23.78
2016-11-28T02:58:26.218Z,23.8
2016-11-28T02:59:39.828Z,23.84
2016-11-28T03:00:53.425Z,23.93
2016-11-28T03:02:06.002Z,23.93
2016-11-28T03:03:19.641Z,23.91
2016-11-28T03:04:33.341Z,23.98
2016-11-28T03:05:46.390Z,23.98
2016-11-28T03:07:00.002Z,24.02
2016-11-28T03:08:13.058Z,24.02
2016-11-28T03:09:25.898Z,24.03
2016-11-28T03:10:39.511Z,24.02
2016-11-28T03:11:52.608Z,23.97
2016-11-28T03:13:06.170Z,23.87
2016-11-28T03:14:19.268Z,23.79
2016-11-28T03:15:33.004Z,23.78
2016-11-28T03:16:46.112Z,23.75
2016-11-28T03:17:59.242Z,23.8
2016-11-28T03:19:12.925Z,23.76
2016-11-28T03:20:26.515Z,23.68
2016-11-28T03:21:40.382Z,23.57
2016-11-28T03:22:53.481Z,23.6
2016-11-28T03:24:07.600Z,23.54
2016-11-28T03:25:21.192Z,23.51
2016-11-28T03:26:34.805Z,23.48
2016-11-28T03:27:48.441Z,23.53
2016-11-28T03:29:02.008Z,23.47
2016-11-28T03:30:15.118Z,23.55
2016-11-28T03:31:28.470Z,23.54
2016-11-28T03:33:13.183Z,23.6
2016-11-28T03:34:26.033Z,23.68
2016-11-28T03:35:39.751Z,23.61
2016-11-28T03:36:52.852Z,23.65
2016-11-28T03:38:06.529Z,23.57
2016-11-28T03:39:19.623Z,23.68
2016-11-28T03:40:32.758Z,23.57
2016-11-28T03:41:45.835Z,23.5
2016-11-28T03:44:43.836Z,23.54
2016-11-28T03:45:57.416Z,23.46
2016-11-28T03:47:10.562Z,23.33
2016-11-28T03:48:24.116Z,23.31
2016-11-28T03:49:37.518Z,23.42
2016-11-28T03:50:51.124Z,23.4
2016-11-28T03:52:04.784Z,23.39
2016-11-28T03:53:18.406Z,23.51
2016-11-28T03:54:31.477Z,23.46
2016-11-28T03:55:45.133Z,23.35
2016-11-28T03:56:58.499Z,23.39
2016-11-28T03:58:12.245Z,23.35
2016-11-28T03:59:25.931Z,23.33
2016-11-28T04:00:39.492Z,23.16
2016-11-28T04:01:53.161Z,23.19
2016-11-28T04:03:06.276Z,23.13
2016-11-28T04:04:19.077Z,23.12
2016-11-28T04:05:32.691Z,23.16
2016-11-28T04:06:46.244Z,23.23
2016-11-28T04:07:59.325Z,23.25
2016-11-28T04:09:12.990Z,23.16
2016-11-28T04:10:26.631Z,23.27
2016-11-28T04:11:39.398Z,23.32
2016-11-28T04:12:53.023Z,23.33
2016-11-28T04:14:06.063Z,23.2
2016-11-28T04:15:19.690Z,23.22
2016-11-28T04:16:32.762Z,23.16
2016-11-28T04:17:45.895Z,23.25
2016-11-28T04:18:59.552Z,23.13
2016-11-28T04:20:12.653Z,23
2016-11-28T04:21:25.232Z,23.09
2016-11-28T04:22:38.778Z,23.01
2016-11-28T04:23:52.070Z,23.12
2016-11-28T04:25:05.738Z,23.13
2016-11-28T04:26:19.309Z,23.05
2016-11-28T04:27:32.971Z,23.05
2016-11-28T04:28:46.609Z,23.07
2016-11-28T04:30:31.351Z,23.02
2016-11-28T04:31:44.486Z,23
2016-11-28T04:32:58.054Z,23.1
2016-11-28T04:34:11.766Z,23.01
2016-11-28T04:35:25.429Z,23
2016-11-28T04:36:38.544Z,23.12
2016-11-28T04:37:51.605Z,23.09
2016-11-28T04:39:05.248Z,23.15
2016-11-28T04:40:18.894Z,23.16
2016-11-28T04:41:31.410Z,23.09
2016-11-28T04:42:45.003Z,23.07
2016-11-28T04:43:58.614Z,23.1
2016-11-28T04:45:12.263Z,23.1
2016-11-28T04:46:24.291Z,23.09
2016-11-28T04:47:37.966Z,23.1
2016-11-28T04:48:51.291Z,23.13
2016-11-28T04:50:04.881Z,23.22
2016-11-28T04:51:18.540Z,23.13
2016-11-28T04:52:31.572Z,23.25
2016-11-28T04:53:45.169Z,23.13
2016-11-28T04:54:57.721Z,23.17
2016-11-28T04:56:10.685Z,23.15
2016-11-28T04:57:24.037Z,23.09
2016-11-28T04:58:37.708Z,22.94
2016-11-28T04:59:51.291Z,22.98
2016-11-28T05:01:04.910Z,22.91
2016-11-28T05:02:17.956Z,22.92
2016-11-28T05:03:31.553Z,22.9
2016-11-28T05:04:43.822Z,22.79
2016-11-28T05:05:56.886Z,22.7
2016-11-28T05:07:10.494Z,22.77
2016-11-28T05:08:24.085Z,22.68
2016-11-28T05:09:37.560Z,22.62
2016-11-28T05:10:51.289Z,22.61
2016-11-28T05:12:04.991Z,22.68
2016-11-28T05:13:18.555Z,22.64
2016-11-28T05:14:32.154Z,22.62
2016-11-28T05:15:45.704Z,22.68
2016-11-28T05:16:58.802Z,22.67
2016-11-28T05:18:12.388Z,22.79
2016-11-28T05:19:26.020Z,22.58
2016-11-28T05:20:39.661Z,22.62
2016-11-28T05:21:52.793Z,22.68
2016-11-28T05:23:06.402Z,22.61
2016-11-28T05:24:19.997Z,22.82
2016-11-28T05:25:32.858Z,22.79
2016-11-28T05:26:46.500Z,22.72
2016-11-28T05:27:59.865Z,22.73
2016-11-28T05:29:13.509Z,22.64
2016-11-28T05:30:26.659Z,22.73
2016-11-28T05:31:40.529Z,22.7
2016-11-28T05:32:53.630Z,22.67
2016-11-28T05:34:07.595Z,22.75
2016-11-28T05:35:21.194Z,22.7
2016-11-28T05:36:34.521Z,22.67
2016-11-28T05:37:48.101Z,22.68
2016-11-28T05:39:01.703Z,22.65
2016-11-28T05:40:15.388Z,22.82
2016-11-28T05:41:28.995Z,22.76
2016-11-28T05:42:42.651Z,22.68
2016-11-28T05:43:55.705Z,22.73
2016-11-28T05:45:09.307Z,22.73
2016-11-28T05:46:22.357Z,22.73
2016-11-28T05:47:36.002Z,22.79
2016-11-28T05:48:49.355Z,22.82
2016-11-28T05:50:02.180Z,22.82
2016-11-28T05:51:15.840Z,22.83
2016-11-28T05:52:28.955Z,22.86
2016-11-28T05:53:42.615Z,22.85
2016-11-28T05:54:55.465Z,22.82
2016-11-28T05:56:09.010Z,22.88
2016-11-28T05:57:22.139Z,22.92
2016-11-28T05:58:35.761Z,22.86
2016-11-28T05:59:49.357Z,22.86
2016-11-28T06:01:02.958Z,22.83
2016-11-28T06:02:15.033Z,22.83
2016-11-28T06:03:28.688Z,22.82
2016-11-28T06:04:41.810Z,22.72
2016-11-28T06:06:26.495Z,22.8
2016-11-28T06:07:40.163Z,22.8
2016-11-28T06:08:53.251Z,22.83
2016-11-28T06:10:06.867Z,22.85
2016-11-28T06:11:20.451Z,22.88
2016-11-28T06:12:34.433Z,22.86
2016-11-28T06:13:47.552Z,22.86
2016-11-28T06:15:01.328Z,22.8
2016-11-28T06:16:14.882Z,22.85
2016-11-28T06:17:27.968Z,22.8
2016-11-28T06:19:11.921Z,22.79
2016-11-28T06:20:25.597Z,22.85
2016-11-28T06:21:39.243Z,22.94
2016-11-28T06:22:52.048Z,22.88
2016-11-28T06:24:05.146Z,22.86
2016-11-28T06:25:18.745Z,22.82
2016-11-28T06:26:31.559Z,22.9
2016-11-28T06:27:45.181Z,22.92
2016-11-28T06:28:58.738Z,22.91
2016-11-28T06:30:12.361Z,22.76
2016-11-28T06:31:25.231Z,22.77
2016-11-28T06:32:38.271Z,22.76
2016-11-28T06:33:51.308Z,22.7
2016-11-28T06:35:04.967Z,22.64
2016-11-28T06:36:17.996Z,22.8
2016-11-28T06:37:31.656Z,22.68
2016-11-28T06:38:45.323Z,22.73
2016-11-28T06:39:58.955Z,22.76
2016-11-28T06:41:12.305Z,22.68
2016-11-28T06:42:25.900Z,22.64
2016-11-28T06:43:39.556Z,22.77
2016-11-28T06:44:53.231Z,22.64
2016-11-28T06:46:06.840Z,22.65
2016-11-28T06:47:20.212Z,22.61
2016-11-28T06:48:33.771Z,22.62
2016-11-28T06:49:46.792Z,22.64
2016-11-28T06:51:00.413Z,22.61
2016-11-28T06:52:14.009Z,22.61
2016-11-28T06:53:27.649Z,22.52
2016-11-28T06:54:41.220Z,22.62
2016-11-28T06:55:54.800Z,22.62
2016-11-28T06:57:07.947Z,22.62
2016-11-28T06:58:21.025Z,22.62
2016-11-28T06:59:34.637Z,22.68
2016-11-28T07:00:48.220Z,22.72
2016-11-28T07:02:01.877Z,22.73
2016-11-28T07:03:15.485Z,22.75
2016-11-28T07:04:29.192Z,22.73
2016-11-28T07:05:42.264Z,22.7
2016-11-28T07:06:55.918Z,22.62
2016-11-28T07:08:09.446Z,22.72
2016-11-28T07:09:23.062Z,22.62
2016-11-28T07:10:36.683Z,22.62
2016-11-28T07:11:50.353Z,22.61
2016-11-28T07:13:03.417Z,22.43
2016-11-28T07:14:17.024Z,22.49
2016-11-28T07:15:30.572Z,22.39
2016-11-28T07:16:43.656Z,22.52
2016-11-28T07:17:57.286Z,22.43
2016-11-28T07:19:10.689Z,22.54
2016-11-28T07:20:23.735Z,22.49
2016-11-28T07:21:37.652Z,22.47
2016-11-28T07:22:50.432Z,22.42
2016-11-28T07:24:04.307Z,22.42
2016-11-28T07:25:49.067Z,22.4
2016-11-28T07:27:02.600Z,22.39
2016-11-28T07:28:16.179Z,22.4
2016-11-28T07:29:29.796Z,22.4
2016-11-28T07:30:43.384Z,22.4
2016-11-28T07:32:28.093Z,22.37
2016-11-28T07:33:41.161Z,22.35
2016-11-28T07:34:54.721Z,22.36
2016-11-28T07:36:08.331Z,22.37
2016-11-28T07:37:22.012Z,22.27
2016-11-28T07:38:35.204Z,22.3
2016-11-28T07:39:48.247Z,22.27
2016-11-28T07:41:01.902Z,22.25
2016-11-28T07:42:15.443Z,22.28
2016-11-28T07:43:29.063Z,22.3
2016-11-28T07:44:42.169Z,22.27
2016-11-28T07:45:54.678Z,22.22
2016-11-28T07:47:08.258Z,22.27
2016-11-28T07:48:21.837Z,22.36
2016-11-28T07:49:35.400Z,22.37
2016-11-28T07:50:48.955Z,22.39
2016-11-28T07:52:02.570Z,22.35
2016-11-28T07:53:16.149Z,22.45
2016-11-28T07:54:29.836Z,22.51
2016-11-28T07:55:43.388Z,22.52
2016-11-28T07:56:57.000Z,22.49
2016-11-28T07:58:10.698Z,22.47
2016-11-28T07:59:24.377Z,22.46
2016-11-28T08:00:37.465Z,22.46
2016-11-28T08:01:49.993Z,22.47
2016-11-28T08:03:03.609Z,22.6
2016-11-28T08:04:16.391Z,22.65
2016-11-28T08:05:30.040Z,22.57
2016-11-28T08:06:43.672Z,22.58
2016-11-28T08:07:57.300Z,22.62
2016-11-28T08:09:10.895Z,22.62
2016-11-28T08:10:24.536Z,22.65
2016-11-28T08:11:37.855Z,22.61
2016-11-28T08:12:51.535Z,22.57
2016-11-28T08:14:05.078Z,22.62
2016-11-28T08:15:17.611Z,22.58
2016-11-28T08:16:30.174Z,22.49
2016-11-28T08:17:43.788Z,22.64
2016-11-28T08:18:57.423Z,22.61
2016-11-28T08:20:11.072Z,22.64
2016-11-28T08:21:24.670Z,22.61
2016-11-28T08:22:38.225Z,22.61
2016-11-28T08:23:51.827Z,22.58
2016-11-28T08:25:05.529Z,22.55
2016-11-28T08:26:19.107Z,22.52
2016-11-28T08:27:32.756Z,22.36
2016-11-28T08:28:45.775Z,22.45
2016-11-28T08:29:58.057Z,22.36
2016-11-28T08:31:11.131Z,22.36
2016-11-28T08:32:24.522Z,22.42
2016-11-28T08:33:37.894Z,22.33
2016-11-28T08:34:51.560Z,22.37
2016-11-28T08:36:04.915Z,22.46
2016-11-28T08:37:17.460Z,22.51
2016-11-28T08:38:30.236Z,22.47
2016-11-28T08:39:43.580Z,22.46
2016-11-28T08:40:56.113Z,22.45
2016-11-28T08:42:09.113Z,22.46
2016-11-28T08:43:22.684Z,22.49
2016-11-28T08:44:36.295Z,22.49
2016-11-28T08:45:49.439Z,22.49
2016-11-28T08:47:03.072Z,22.6
2016-11-28T08:48:16.450Z,22.55
2016-11-28T08:49:30.045Z,22.62
2016-11-28T08:50:43.695Z,22.58
2016-11-28T08:51:56.810Z,22.55
2016-11-28T08:53:10.724Z,22.57
2016-11-28T08:54:24.351Z,22.58
2016-11-28T08:55:37.859Z,22.61
2016-11-28T08:56:51.528Z,22.6
2016-11-28T08:58:04.610Z,22.62
2016-11-28T08:59:18.251Z,22.62
2016-11-28T09:00:31.860Z,22.61
2016-11-28T09:01:45.423Z,22.49
2016-11-28T09:02:58.773Z,22.51
2016-11-28T09:04:12.350Z,22.52
2016-11-28T09:05:25.463Z,22.4
2016-11-28T09:06:39.069Z,22.28
2016-11-28T09:07:52.425Z,22.4
2016-11-28T09:09:05.495Z,22.37
2016-11-28T09:10:18.572Z,22.33
2016-11-28T09:11:32.159Z,22.42
2016-11-28T09:12:45.199Z,22.43
2016-11-28T09:13:58.778Z,22.27
2016-11-28T09:15:11.375Z,22.3
2016-11-28T09:16:24.463Z,22.42
2016-11-28T09:17:37.728Z,22.33
2016-11-28T09:18:51.405Z,22.37
2016-11-28T09:20:05.033Z,22.39
2016-11-28T09:21:18.632Z,22.37
2016-11-28T09:22:31.691Z,22.33
2016-11-28T09:23:45.294Z,22.4
2016-11-28T09:24:59.020Z,22.42
2016-11-28T09:26:12.111Z,22.35
2016-11-28T09:27:25.710Z,22.42
2016-11-28T09:28:39.310Z,22.39
2016-11-28T09:29:52.941Z,22.39
2016-11-28T09:31:06.618Z,22.43
2016-11-28T09:32:20.149Z,22.45
2016-11-28T09:33:33.216Z,22.47
2016-11-28T09:34:46.780Z,22.55
2016-11-28T09:36:00.344Z,22.45
2016-11-28T09:37:13.895Z,22.54
2016-11-28T09:38:26.729Z,22.52
2016-11-28T09:39:40.369Z,22.57
2016-11-28T09:40:53.466Z,22.47
2016-11-28T09:42:06.564Z,22.49
2016-11-28T09:43:19.695Z,22.49
2016-11-28T09:44:33.338Z,22.58
2016-11-28T09:45:46.979Z,22.51
2016-11-28T09:47:31.665Z,22.49
2016-11-28T09:48:45.243Z,22.54
2016-11-28T09:49:58.856Z,22.55
2016-11-28T09:51:11.930Z,22.55
2016-11-28T09:52:24.980Z,22.64
2016-11-28T09:53:38.337Z,22.7
2016-11-28T09:54:51.381Z,22.77
2016-11-28T09:56:05.005Z,22.86
2016-11-28T09:57:18.607Z,22.9
2016-11-28T09:58:32.222Z,22.86
2016-11-28T09:59:45.820Z,22.94
2016-11-28T10:00:58.942Z,22.91
2016-11-28T10:02:12.541Z,23
2016-11-28T10:03:26.129Z,23
2016-11-28T10:04:39.827Z,22.95
2016-11-28T10:05:52.946Z,22.98
2016-11-28T10:07:06.590Z,22.97
2016-11-28T10:08:19.593Z,23.2
2016-11-28T10:09:33.142Z,23.12
2016-11-28T10:10:46.785Z,22.95
2016-11-28T10:12:00.160Z,23.1
2016-11-28T10:13:13.180Z,23.15
2016-11-28T10:14:26.855Z,23.27
2016-11-28T10:15:40.606Z,23.35
2016-11-28T10:16:53.960Z,23.38
2016-11-28T10:18:07.747Z,23.38
2016-11-28T10:19:51.931Z,23.31
2016-11-28T10:21:05.001Z,23.38
2016-11-28T10:22:18.568Z,23.48
2016-11-28T10:23:31.421Z,23.51
2016-11-28T10:24:45.154Z,23.43
2016-11-28T10:25:58.737Z,23.4
2016-11-28T10:27:11.499Z,23.46
2016-11-28T10:28:24.059Z,23.57
2016-11-28T10:29:37.755Z,23.47
2016-11-28T10:30:51.404Z,23.53
2016-11-28T10:32:05.034Z,23.53
2016-11-28T10:33:18.634Z,23.57
2016-11-28T10:34:32.281Z,23.53
2016-11-28T10:35:45.864Z,23.61
2016-11-28T10:36:59.460Z,23.57
2016-11-28T10:38:13.078Z,23.66
2016-11-28T10:39:25.854Z,23.69
2016-11-28T10:40:39.453Z,23.61
2016-11-28T10:41:52.249Z,23.7
2016-11-28T10:43:05.886Z,23.87
2016-11-28T10:44:19.478Z,23.78
2016-11-28T10:45:33.136Z,23.75
2016-11-28T10:46:46.494Z,23.87
2016-11-28T10:48:00.092Z,23.79
2016-11-28T10:49:13.451Z,23.84
2016-11-28T10:50:26.800Z,23.79
2016-11-28T10:51:40.856Z,23.83
2016-11-28T10:52:54.412Z,23.88
2016-11-28T10:54:08.033Z,24.03
2016-11-28T10:55:21.570Z,23.94
2016-11-28T10:56:35.160Z,24.09
2016-11-28T10:57:48.760Z,24.16
2016-11-28T10:59:01.805Z,23.94
2016-11-28T11:00:14.889Z,24
2016-11-28T11:01:28.491Z,24.09
2016-11-28T11:02:42.108Z,24.06
2016-11-28T11:04:14.338Z,24.22
2016-11-28T11:05:28.006Z,24.31
2016-11-28T11:06:42.059Z,24.31
2016-11-28T11:07:54.073Z,24.43
2016-11-28T11:09:07.706Z,24.45
2016-11-28T11:10:21.276Z,24.49
2016-11-28T11:11:34.690Z,24.49
2016-11-28T11:12:48.257Z,24.34
2016-11-28T11:14:01.557Z,24.5
2016-11-28T11:15:15.170Z,24.52
2016-11-28T11:16:28.790Z,24.58
2016-11-28T11:17:42.414Z,24.71
2016-11-28T11:18:56.062Z,24.85
2016-11-28T11:20:09.189Z,24.87
2016-11-28T11:21:22.013Z,25
2016-11-28T11:22:35.621Z,24.95
2016-11-28T11:23:49.295Z,24.98
2016-11-28T11:25:02.852Z,25.1
2016-11-28T11:26:16.209Z,25.14
2016-11-28T11:27:29.584Z,25.18
2016-11-28T11:28:43.188Z,25.15
2016-11-28T11:29:56.220Z,25.14
2016-11-28T11:31:09.543Z,25.03
2016-11-28T11:32:22.584Z,25.15
2016-11-28T11:33:35.988Z,25.15
2016-11-28T11:34:49.593Z,25.23
2016-11-28T11:36:02.716Z,25.3
2016-11-28T11:37:16.288Z,25.32
2016-11-28T11:38:29.923Z,25.42
2016-11-28T11:39:43.568Z,25.5
2016-11-28T11:40:56.647Z,25.47
2016-11-28T11:42:41.365Z,25.42
2016-11-28T11:43:53.892Z,25.46
2016-11-28T11:45:06.470Z,25.5
2016-11-28T11:46:20.068Z,25.58
2016-11-28T11:47:32.024Z,25.57
2016-11-28T11:48:45.650Z,25.52
2016-11-28T11:49:59.220Z,25.62
2016-11-28T11:51:12.293Z,25.73
2016-11-28T11:52:24.799Z,25.77
2016-11-28T11:53:37.868Z,25.79
2016-11-28T11:54:50.926Z,25.8
2016-11-28T11:56:04.684Z,25.87
2016-11-28T11:57:18.225Z,25.92
2016-11-28T11:58:31.579Z,25.91
2016-11-28T11:59:44.649Z,25.92
2016-11-28T12:00:57.702Z,25.9
2016-11-28T12:02:10.961Z,25.82
2016-11-28T12:03:24.606Z,25.87
2016-11-28T12:04:37.818Z,25.94
2016-11-28T12:05:51.384Z,25.88
2016-11-28T12:08:49.670Z,25.98
2016-11-28T12:10:03.293Z,25.95
2016-11-28T12:11:16.654Z,25.92
2016-11-28T12:12:30.302Z,25.88
2016-11-28T12:13:43.912Z,25.91
2016-11-28T12:14:57.028Z,25.85
2016-11-28T12:16:10.118Z,25.87
2016-11-28T12:17:23.680Z,25.88
2016-11-28T12:18:37.037Z,25.92
2016-11-28T12:19:50.661Z,25.99
2016-11-28T12:21:04.715Z,25.91
2016-11-28T12:22:17.823Z,26.05
2016-11-28T12:23:30.883Z,26.13
2016-11-28T12:24:44.495Z,26.17
2016-11-28T12:25:58.064Z,26.18
2016-11-28T12:27:11.026Z,26.26
2016-11-28T12:28:24.650Z,26.29
2016-11-28T12:29:37.841Z,26.37
2016-11-28T12:30:50.900Z,26.47
2016-11-28T12:32:04.036Z,26.47
2016-11-28T12:33:17.707Z,26.5
2016-11-28T12:34:31.511Z,26.48
2016-11-28T12:35:45.279Z,26.44
2016-11-28T12:36:58.383Z,26.44
2016-11-28T12:38:12.142Z,26.44
2016-11-28T12:39:25.732Z,26.37
2016-11-28T12:40:39.303Z,26.35
2016-11-28T12:41:52.878Z,26.3
2016-11-28T12:43:06.551Z,26.21
2016-11-28T12:44:19.593Z,26.2
2016-11-28T12:45:33.219Z,26.18
2016-11-28T12:46:46.863Z,26.1
2016-11-28T12:48:00.020Z,26.17
2016-11-28T12:49:13.366Z,26.21
2016-11-28T12:50:27.030Z,26.26
2016-11-28T12:52:10.167Z,26.36
2016-11-28T12:53:23.824Z,26.44
2016-11-28T12:54:36.694Z,26.48
2016-11-28T12:55:50.297Z,26.58
2016-11-28T12:57:03.858Z,26.66
2016-11-28T12:58:16.925Z,26.73
2016-11-28T12:59:30.544Z,26.77
2016-11-28T13:00:44.068Z,26.88
2016-11-28T13:01:57.648Z,26.92
2016-11-28T13:03:10.729Z,27.02
2016-11-28T13:04:23.810Z,27.03
2016-11-28T13:05:37.798Z,27.12
2016-11-28T13:06:51.332Z,27.17
2016-11-28T13:08:04.932Z,27.18
2016-11-28T13:09:18.486Z,27
2016-11-28T13:10:31.004Z,27.1
2016-11-28T13:11:44.623Z,27.06
2016-11-28T13:12:58.176Z,27.1
2016-11-28T13:14:12.224Z,27.18
2016-11-28T13:15:25.593Z,27.21
2016-11-28T13:16:39.217Z,27.21
2016-11-28T13:17:52.320Z,27.24
2016-11-28T13:19:05.929Z,27.21
2016-11-28T13:20:19.564Z,27.22
2016-11-28T13:21:32.589Z,27.32
2016-11-28T13:22:45.686Z,27.27
2016-11-28T13:23:59.246Z,27.37
2016-11-28T13:25:12.562Z,27.27
2016-11-28T13:26:25.612Z,27.17
2016-11-28T13:27:39.024Z,27.24
2016-11-28T13:28:52.694Z,27.31
2016-11-28T13:30:05.740Z,27.4
2016-11-28T13:31:19.088Z,27.32
2016-11-28T13:32:32.138Z,27.24
2016-11-28T13:33:45.792Z,27.31
2016-11-28T13:34:59.431Z,27.32
2016-11-28T13:36:12.477Z,27.4
2016-11-28T13:37:26.114Z,27.46
2016-11-28T13:38:39.672Z,27.46
2016-11-28T13:39:53.757Z,27.51
2016-11-28T13:41:05.774Z,27.57
2016-11-28T13:42:19.669Z,27.54
2016-11-28T13:43:32.507Z,27.57
2016-11-28T13:44:45.585Z,27.65
2016-11-28T13:45:58.175Z,27.65
2016-11-28T13:47:12.149Z,27.7
2016-11-28T13:48:25.706Z,27.75
2016-11-28T13:49:39.005Z,27.87
2016-11-28T13:50:52.615Z,27.75
2016-11-28T13:52:09.058Z,27.82
2016-11-28T13:53:22.611Z,27.9
2016-11-28T13:54:35.735Z,27.94
2016-11-28T13:55:49.295Z,28.03
2016-11-28T13:57:02.358Z,28.22
2016-11-28T13:58:15.965Z,28.27
2016-11-28T13:59:29.568Z,28.49
2016-11-28T14:00:43.185Z,28.52
2016-11-28T14:01:56.327Z,28.71
2016-11-28T14:03:10.039Z,28.88
2016-11-28T14:04:22.588Z,28.89
2016-11-28T14:05:36.172Z,29.04
2016-11-28T14:06:49.271Z,29.27
2016-11-28T14:08:02.895Z,29.33
2016-11-28T14:09:16.043Z,29.46
2016-11-28T14:10:29.639Z,29.46
2016-11-28T14:11:42.180Z,29.61
2016-11-28T14:12:55.886Z,29.67
2016-11-28T14:14:09.516Z,29.63
2016-11-28T14:15:53.140Z,29.61
2016-11-28T14:17:06.833Z,29.8
2016-11-28T14:18:20.699Z,29.68
2016-11-28T14:19:33.864Z,29.71
2016-11-28T14:20:47.639Z,29.89
2016-11-28T14:22:01.603Z,30.02
2016-11-28T14:23:15.286Z,30.16
2016-11-28T14:24:28.899Z,30.22
2016-11-28T14:25:42.264Z,30.15
2016-11-28T14:26:56.023Z,30.11
2016-11-28T14:28:09.494Z,30.05
2016-11-28T14:29:25.325Z,29.94
2016-11-28T14:30:39.068Z,30.11
2016-11-28T14:31:52.972Z,30.2
2016-11-28T14:33:05.913Z,30.39
2016-11-28T14:34:19.719Z,30.53
2016-11-28T14:35:33.487Z,30.67
2016-11-28T14:36:46.509Z,30.62
2016-11-28T14:38:00.202Z,30.73
2016-11-28T14:39:14.940Z,30.88
2016-11-28T14:40:31.675Z,31.07
2016-11-28T14:41:47.179Z,30.94
2016-11-28T14:43:00.615Z,30.88
2016-11-28T14:44:14.257Z,30.79
2016-11-28T14:45:27.884Z,30.86
2016-11-28T14:46:41.724Z,31.21
2016-11-28T14:47:55.432Z,31.84
2016-11-28T14:49:09.052Z,32.19
2016-11-28T14:50:22.641Z,32.6
2016-11-28T14:51:35.759Z,32.78
2016-11-28T14:52:48.877Z,32.59
2016-11-28T14:54:02.230Z,32.52
2016-11-28T14:55:15.343Z,32.79
2016-11-28T14:56:29.102Z,33.09
2016-11-28T14:57:42.818Z,33.15
2016-11-28T14:58:56.149Z,33.11
2016-11-28T15:00:09.458Z,33.16
2016-11-28T15:01:23.227Z,33.15
2016-11-28T15:02:36.898Z,33.16
2016-11-28T15:03:50.723Z,33.04
2016-11-28T15:05:04.021Z,33.04
2016-11-28T15:06:17.159Z,32.93
2016-11-28T15:07:30.494Z,32.78
2016-11-28T15:08:43.845Z,32.74
2016-11-28T15:09:57.343Z,32.78
2016-11-28T15:11:10.969Z,32.99
2016-11-28T15:12:23.965Z,33.12
2016-11-28T15:13:37.890Z,33.34
2016-11-28T15:14:51.512Z,33.39
2016-11-28T15:16:05.056Z,33.47
2016-11-28T15:17:18.654Z,33.34
2016-11-28T15:18:31.120Z,32.93
2016-11-28T15:19:44.716Z,32.84
2016-11-28T15:20:58.311Z,32.92
2016-11-28T15:22:11.698Z,33.14
2016-11-28T15:23:24.744Z,33.35
2016-11-28T15:24:37.955Z,33
2016-11-28T15:25:50.997Z,32.82
2016-11-28T15:27:04.760Z,32.66
2016-11-28T15:28:18.341Z,33.34
2016-11-28T15:29:31.885Z,34.03
2016-11-28T15:30:45.493Z,34.53
2016-11-28T15:31:59.107Z,34.73
2016-11-28T15:33:12.646Z,34.59
2016-11-28T15:34:26.259Z,34.75
2016-11-28T15:35:39.781Z,34.58
2016-11-28T15:36:53.314Z,34.21
2016-11-28T15:38:06.622Z,33.75
2016-11-28T15:39:20.279Z,33.56
2016-11-28T15:40:33.936Z,33.39
2016-11-28T15:41:47.553Z,32.88
2016-11-28T15:43:00.639Z,32.93
2016-11-28T15:44:13.660Z,33.14
2016-11-28T15:45:26.793Z,33.28
2016-11-28T15:46:39.871Z,32.94
2016-11-28T15:47:53.426Z,33.16
2016-11-28T15:49:05.952Z,33.51
2016-11-28T15:50:18.934Z,34.08
2016-11-28T15:51:32.222Z,34.43
2016-11-28T15:52:45.785Z,34.82
2016-11-28T15:53:58.914Z,35.09
2016-11-28T15:55:12.500Z,35.33
2016-11-28T15:56:26.037Z,35.48
2016-11-28T15:57:39.080Z,35.93
2016-11-28T15:58:52.207Z,35.94
2016-11-28T16:00:05.767Z,35.47
2016-11-28T16:01:18.862Z,35.21
2016-11-28T16:02:31.719Z,35.37
2016-11-28T16:04:16.474Z,35.36
2016-11-28T16:05:30.080Z,34.56